Time;durP1;ratioP1;P1;durP2;ratioP2;P2;SDS_P1;SDS_P2;PMS_P1;PMS_P2;Temp;Humidity;BMP_temperature;BMP_pressure;BME280_temperature;BME280_humidity;BME280_pressure;Samples;Min_cycle;Max_cycle;Signal;HPM_P1;HPM_P2
2023/10/26 00:00:59;;;;;;;2.37;1.00;;;12.70;99.90;;;;;;4949143;29;20196;-89
2023/10/26 00:03:24;;;;;;;1.10;0.93;;;12.70;99.90;;;;;;4943036;29;20208;-89
2023/10/26 00:05:50;;;;;;;4.50;1.00;;;12.60;99.90;;;;;;4948676;28;20547;-89
2023/10/26 00:08:15;;;;;;;1.10;0.83;;;12.80;99.90;;;;;;4947253;29;20243;-89
2023/10/26 00:10:41;;;;;;;1.03;0.90;;;12.70;99.90;;;;;;4945743;29;20680;-89
2023/10/26 00:13:07;;;;;;;0.87;0.73;;;12.70;99.90;;;;;;4949305;29;20838;-89
2023/10/26 00:15:33;;;;;;;2.50;0.93;;;12.70;99.90;;;;;;4949195;28;20207;-89
2023/10/26 00:17:58;;;;;;;1.00;0.90;;;12.70;99.90;;;;;;4948573;28;20208;-89
2023/10/26 00:20:24;;;;;;;1.73;1.07;;;12.80;99.90;;;;;;4948835;28;20237;-89
2023/10/26 00:22:49;;;;;;;2.17;0.97;;;12.90;99.90;;;;;;4947714;28;20280;-89
2023/10/26 00:25:15;;;;;;;2.00;1.20;;;12.60;99.90;;;;;;4948952;28;20228;-89
2023/10/26 00:27:40;;;;;;;1.37;0.90;;;12.50;99.90;;;;;;4949566;29;20257;-89
2023/10/26 00:30:09;;;;;;;0.80;0.80;;;12.10;99.90;;;;;;4951188;29;20193;-89
2023/10/26 00:32:35;;;;;;;1.95;1.00;;;12.10;99.90;;;;;;4949567;28;20300;-89
2023/10/26 00:35:00;;;;;;;0.80;0.70;;;12.20;99.90;;;;;;4952897;29;20287;-89
2023/10/26 00:37:26;;;;;;;1.07;1.00;;;12.30;99.90;;;;;;4951211;29;20227;-89
2023/10/26 00:39:51;;;;;;;1.00;0.80;;;12.20;99.90;;;;;;4947283;29;20185;-89
2023/10/26 00:42:16;;;;;;;2.37;1.00;;;12.50;99.90;;;;;;4950740;29;20224;-89
2023/10/26 00:44:46;;;;;;;1.20;1.10;;;12.70;99.90;;;;;;4949501;29;20288;-88
2023/10/26 00:47:13;;;;;;;0.98;0.88;;;12.70;99.90;;;;;;4951815;29;20211;-89
2023/10/26 00:49:40;;;;;;;2.97;1.10;;;12.40;99.90;;;;;;4950939;29;20201;-89
2023/10/26 00:52:10;;;;;;;1.85;0.90;;;12.50;99.90;;;;;;4952218;29;20196;-89
2023/10/26 00:54:38;;;;;;;1.58;1.08;;;12.20;99.90;;;;;;4950187;29;20185;-89
2023/10/26 00:57:04;;;;;;;2.22;1.08;;;12.70;99.90;;;;;;4951819;29;20208;-89
2023/10/26 00:59:30;;;;;;;1.55;1.20;;;12.30;99.90;;;;;;4948004;28;20252;-89
2023/10/26 01:02:00;;;;;;;1.73;1.20;;;12.40;99.90;;;;;;4950850;29;20214;-89
2023/10/26 01:04:25;;;;;;;1.10;1.00;;;12.20;99.90;;;;;;4949301;29;20205;-89
2023/10/26 01:06:51;;;;;;;2.10;1.37;;;12.60;99.90;;;;;;4950705;29;20192;-90
2023/10/26 01:09:17;;;;;;;1.60;1.50;;;12.10;99.90;;;;;;4952237;29;20212;-90
2023/10/26 01:11:43;;;;;;;1.13;1.03;;;12.30;99.90;;;;;;4951361;29;20215;-89
2023/10/26 01:14:08;;;;;;;1.20;1.00;;;12.00;99.90;;;;;;4941615;29;20292;-89
2023/10/26 01:16:35;;;;;;;1.10;1.03;;;12.00;99.90;;;;;;4946943;29;20471;-89
2023/10/26 01:19:02;;;;;;;1.50;0.90;;;11.80;99.90;;;;;;4950356;28;20378;-89
2023/10/26 01:21:29;;;;;;;1.27;1.17;;;12.30;99.90;;;;;;4954867;28;20270;-89
2023/10/26 01:23:55;;;;;;;1.30;1.00;;;11.70;99.90;;;;;;4967375;28;20200;-89
2023/10/26 01:26:20;;;;;;;1.25;1.08;;;11.90;99.90;;;;;;4971182;28;20208;-89
2023/10/26 01:28:46;;;;;;;1.93;1.00;;;12.00;99.90;;;;;;4951140;29;20259;-90
2023/10/26 01:31:18;;;;;;;1.90;1.40;;;13.80;99.90;;;;;;4951321;29;20614;-90
2023/10/26 01:33:45;;;;;;;0.80;0.80;;;11.50;99.90;;;;;;4950131;28;20210;-90
2023/10/26 01:36:11;;;;;;;1.58;1.10;;;12.70;99.90;;;;;;4945235;28;20186;-90
2023/10/26 01:38:37;;;;;;;1.75;0.88;;;12.70;99.90;;;;;;4950396;29;20239;-89
2023/10/26 01:41:02;;;;;;;2.40;1.00;;;12.00;99.90;;;;;;4950749;29;20200;-89
2023/10/26 01:43:29;;;;;;;1.53;0.80;;;11.80;99.90;;;;;;4946807;29;20468;-90
2023/10/26 01:45:55;;;;;;;1.45;0.80;;;11.90;99.90;;;;;;4950500;29;20455;-90
2023/10/26 01:48:23;;;;;;;4.53;1.00;;;12.00;99.90;;;;;;4950952;29;20200;-88
2023/10/26 01:50:48;;;;;;;2.47;0.98;;;12.50;99.90;;;;;;4949661;28;20239;-90
2023/10/26 01:53:14;;;;;;;0.80;0.80;;;12.20;99.90;;;;;;4949663;29;20215;-90
2023/10/26 01:55:40;;;;;;;1.00;0.83;;;11.80;99.90;;;;;;4948000;29;20288;-90
2023/10/26 01:58:06;;;;;;;1.85;0.85;;;12.30;99.90;;;;;;4948022;29;20235;-90
2023/10/26 02:00:31;;;;;;;2.83;0.90;;;12.70;99.90;;;;;;4952016;28;20607;-90
2023/10/26 02:02:57;;;;;;;1.00;0.70;;;12.50;99.90;;;;;;4950779;28;20251;-90
2023/10/26 02:05:22;;;;;;;1.23;0.80;;;12.40;99.90;;;;;;4949292;29;20204;-89
2023/10/26 02:07:48;;;;;;;0.80;0.80;;;12.30;99.90;;;;;;4950209;29;20267;-89
2023/10/26 02:10:14;;;;;;;1.27;0.80;;;12.60;99.90;;;;;;4949703;29;20236;-90
2023/10/26 02:12:40;;;;;;;0.80;0.80;;;12.20;99.90;;;;;;4946133;29;20585;-90
2023/10/26 02:15:06;;;;;;;1.10;0.90;;;13.20;99.90;;;;;;4949136;28;20195;-90
2023/10/26 02:17:32;;;;;;;1.13;1.00;;;11.80;99.90;;;;;;4947326;29;20217;-90
2023/10/26 02:19:57;;;;;;;2.23;1.07;;;11.90;99.90;;;;;;4954503;28;20680;-89
2023/10/26 02:22:23;;;;;;;4.07;1.00;;;11.70;99.90;;;;;;4968370;28;20251;-90
2023/10/26 02:24:48;;;;;;;1.10;0.93;;;11.70;99.90;;;;;;4967329;29;20223;-90
2023/10/26 02:27:14;;;;;;;3.17;1.13;;;11.50;99.90;;;;;;4951104;28;20193;-89
2023/10/26 02:29:39;;;;;;;1.43;1.00;;;12.00;99.90;;;;;;4948457;29;20270;-90
2023/10/26 02:32:06;;;;;;;1.67;1.40;;;11.50;99.90;;;;;;4949919;28;20559;-89
2023/10/26 02:34:31;;;;;;;1.10;0.90;;;11.70;99.90;;;;;;4950119;28;20222;-90
2023/10/26 02:36:59;;;;;;;4.20;1.20;;;11.40;99.90;;;;;;4950628;28;20211;-89
2023/10/26 02:39:25;;;;;;;6.38;1.40;;;11.60;99.90;;;;;;4946924;29;20242;-89
2023/10/26 02:41:50;;;;;;;1.03;0.80;;;11.30;99.90;;;;;;4947856;29;20668;-89
2023/10/26 02:44:15;;;;;;;1.50;1.10;;;11.50;99.90;;;;;;4948658;28;20807;-89
2023/10/26 02:46:41;;;;;;;3.70;1.37;;;11.40;99.90;;;;;;4949793;28;20186;-90
2023/10/26 02:49:06;;;;;;;1.30;1.20;;;11.10;99.90;;;;;;4949134;29;20233;-90
2023/10/26 02:51:32;;;;;;;1.07;0.97;;;11.00;99.90;;;;;;4950723;28;20197;-90
2023/10/26 02:53:58;;;;;;;1.40;1.30;;;11.10;99.90;;;;;;4949355;28;20211;-90
2023/10/26 02:56:24;;;;;;;3.45;1.40;;;10.80;99.90;;;;;;4947104;29;20214;-90
2023/10/26 02:58:50;;;;;;;2.60;0.90;;;11.00;99.90;;;;;;4949555;28;20577;-89
2023/10/26 03:01:15;;;;;;;4.00;1.37;;;11.40;99.90;;;;;;4952237;29;20194;-90
2023/10/26 03:03:41;;;;;;;2.60;1.50;;;10.70;99.90;;;;;;4971873;28;20233;-89
2023/10/26 03:06:06;;;;;;;1.07;0.97;;;11.00;99.90;;;;;;4972320;29;20700;-89
2023/10/26 03:08:32;;;;;;;1.63;1.43;;;10.90;99.90;;;;;;4954801;28;20188;-89
2023/10/26 03:10:57;;;;;;;1.20;1.10;;;10.90;99.90;;;;;;4948564;28;20687;-90
2023/10/26 03:13:23;;;;;;;1.20;1.10;;;11.10;99.90;;;;;;4945673;29;20225;-90
2023/10/26 03:15:48;;;;;;;1.97;1.07;;;11.20;99.90;;;;;;4949232;29;20196;-89
2023/10/26 03:18:14;;;;;;;2.60;1.20;;;10.90;99.90;;;;;;4949548;29;20230;-90
2023/10/26 03:20:40;;;;;;;2.93;1.13;;;11.10;99.90;;;;;;4948951;28;20250;-89
2023/10/26 03:23:05;;;;;;;2.23;1.30;;;10.70;99.90;;;;;;4946645;29;20551;-90
2023/10/26 03:25:31;;;;;;;1.33;1.23;;;10.70;99.90;;;;;;4948185;29;20233;-89
2023/10/26 03:27:56;;;;;;;3.00;1.40;;;10.80;99.90;;;;;;4948678;28;20199;-89
2023/10/26 03:30:22;;;;;;;3.60;1.20;;;10.60;99.90;;;;;;4949703;28;20197;-89
2023/10/26 03:32:47;;;;;;;3.03;1.37;;;10.60;99.90;;;;;;4948547;28;20236;-90
2023/10/26 03:35:13;;;;;;;4.00;1.40;;;11.10;99.90;;;;;;4949810;28;20236;-89
2023/10/26 03:37:38;;;;;;;4.00;1.40;;;10.60;99.90;;;;;;4946015;29;20347;-90
2023/10/26 03:40:05;;;;;;;1.40;1.30;;;10.60;99.90;;;;;;4949162;29;20258;-90
2023/10/26 03:42:31;;;;;;;1.50;1.38;;;10.60;99.90;;;;;;4944491;29;20281;-89
2023/10/26 03:44:57;;;;;;;1.48;1.30;;;10.90;99.90;;;;;;4960518;28;20186;-90
2023/10/26 03:47:23;;;;;;;2.27;1.40;;;10.50;99.90;;;;;;4964028;29;20194;-90
2023/10/26 03:49:51;;;;;;;5.47;1.40;;;10.70;99.90;;;;;;4974079;28;21044;-90
2023/10/26 03:52:26;;;;;;;1.15;1.05;;;10.90;99.90;;;;;;4971568;28;20185;-89
2023/10/26 03:54:52;;;;;;;1.95;1.75;;;10.80;99.90;;;;;;4948184;29;20611;-90
2023/10/26 03:57:17;;;;;;;1.20;1.10;;;11.10;99.90;;;;;;4956350;28;20277;-89
2023/10/26 03:59:43;;;;;;;1.37;1.10;;;11.00;99.90;;;;;;4959093;29;20181;-90
2023/10/26 04:02:08;;;;;;;2.50;1.40;;;11.20;99.90;;;;;;4967366;28;20189;-90
2023/10/26 04:04:34;;;;;;;2.27;1.23;;;10.60;99.90;;;;;;4953406;29;20190;-87
2023/10/26 04:07:00;;;;;;;2.50;1.53;;;11.10;99.90;;;;;;4956090;28;20187;-87
2023/10/26 04:09:25;;;;;;;1.47;1.33;;;10.70;99.90;;;;;;4951896;29;20194;-88
2023/10/26 04:11:51;;;;;;;0.97;0.90;;;10.70;99.90;;;;;;4967039;28;20213;-87
2023/10/26 04:14:16;;;;;;;1.73;1.60;;;11.10;99.90;;;;;;4953704;28;20578;-87
2023/10/26 04:16:42;;;;;;;1.30;1.20;;;10.90;99.90;;;;;;4959933;28;20202;-88
2023/10/26 04:19:07;;;;;;;1.47;1.20;;;10.60;99.90;;;;;;4955001;28;20190;-89
2023/10/26 04:21:33;;;;;;;1.50;1.40;;;10.80;99.90;;;;;;4951311;28;20671;-90
2023/10/26 04:23:59;;;;;;;1.60;1.50;;;11.10;99.90;;;;;;4951538;28;20247;-89
2023/10/26 04:26:25;;;;;;;1.60;1.50;;;10.70;99.90;;;;;;4949043;28;20509;-89
2023/10/26 04:28:51;;;;;;;2.25;1.50;;;10.90;99.90;;;;;;4952022;29;20201;-89
2023/10/26 04:31:17;;;;;;;1.60;1.50;;;10.80;99.90;;;;;;4959613;29;20194;-90
2023/10/26 04:33:42;;;;;;;2.00;1.60;;;10.70;99.90;;;;;;4974934;28;20222;-90
2023/10/26 04:36:08;;;;;;;1.63;1.53;;;10.90;99.90;;;;;;4975381;28;20260;-90
2023/10/26 04:38:34;;;;;;;1.77;1.30;;;11.10;99.90;;;;;;4957253;28;20902;-89
2023/10/26 04:40:59;;;;;;;2.00;1.80;;;10.80;99.90;;;;;;4951268;29;20822;-90
2023/10/26 04:43:26;;;;;;;2.83;1.30;;;10.70;99.90;;;;;;4960682;29;20232;-89
2023/10/26 04:45:51;;;;;;;1.52;1.40;;;10.80;99.90;;;;;;4968816;28;20210;-89
2023/10/26 04:48:17;;;;;;;1.43;1.33;;;10.80;99.90;;;;;;4947983;29;20188;-89
2023/10/26 04:50:43;;;;;;;1.30;1.20;;;10.70;99.90;;;;;;4950079;29;20873;-88
2023/10/26 04:53:09;;;;;;;2.47;1.80;;;11.00;99.90;;;;;;4948951;28;20297;-88
2023/10/26 04:55:34;;;;;;;1.98;1.70;;;11.10;99.90;;;;;;4949012;29;20451;-89
2023/10/26 04:58:01;;;;;;;6.53;1.80;;;10.90;99.90;;;;;;4949646;29;20981;-88
2023/10/26 05:00:27;;;;;;;1.38;1.27;;;10.70;99.90;;;;;;4950519;29;20196;-88
2023/10/26 05:02:53;;;;;;;1.80;1.40;;;11.00;99.90;;;;;;4954794;29;20207;-94
2023/10/26 05:05:19;;;;;;;1.70;1.60;;;10.80;99.90;;;;;;4940020;28;20216;-94
2023/10/26 05:07:45;;;;;;;2.33;2.13;;;11.00;99.90;;;;;;4958203;28;20442;-94
2023/10/26 05:10:11;;;;;;;1.83;1.45;;;10.70;99.90;;;;;;4954886;28;20218;-94
2023/10/26 05:12:37;;;;;;;2.15;1.60;;;10.70;99.90;;;;;;4956386;28;20611;-94
2023/10/26 05:20:46;;;;;;;8.02;2.00;;;10.60;99.90;;;;;;5189424;23;20232;-91
2023/10/26 05:23:12;;;;;;;2.40;2.00;;;10.40;99.90;;;;;;4965305;28;20216;-92
2023/10/26 05:25:37;;;;;;;3.63;1.70;;;12.50;99.90;;;;;;4956448;28;20187;-92
2023/10/26 05:28:03;;;;;;;5.37;2.87;;;9.90;99.90;;;;;;4953046;28;20190;-92
2023/10/26 05:30:29;;;;;;;2.00;1.50;;;9.50;99.90;;;;;;4955386;28;20199;-92
2023/10/26 05:32:54;;;;;;;4.20;2.20;;;11.30;99.90;;;;;;4957446;28;20353;-93
2023/10/26 05:35:23;;;;;;;2.47;1.80;;;10.60;99.90;;;;;;4968956;28;20196;-93
2023/10/26 05:37:49;;;;;;;2.72;2.08;;;11.50;99.90;;;;;;4964566;28;20219;-92
2023/10/26 05:40:14;;;;;;;1.93;1.73;;;9.80;99.90;;;;;;4955336;28;20182;-91
2023/10/26 05:42:40;;;;;;;2.90;2.00;;;12.30;99.90;;;;;;4969842;28;20215;-92
2023/10/26 05:45:12;;;;;;;2.87;2.40;;;10.90;99.90;;;;;;4959380;28;20186;-92
2023/10/26 05:47:37;;;;;;;3.88;2.40;;;10.80;99.90;;;;;;5176070;23;20234;-88
2023/10/26 05:50:05;;;;;;;3.00;2.10;;;;;;;;;;4949108;28;20706;-88
2023/10/26 05:52:31;;;;;;;3.85;2.53;;;10.70;99.90;;;;;;4936825;29;20219;-88
2023/10/26 05:54:56;;;;;;;3.20;2.90;;;12.10;99.90;;;;;;4933126;29;20553;-88
2023/10/26 05:57:22;;;;;;;2.90;2.47;;;11.70;99.90;;;;;;4931075;29;20714;-89
2023/10/26 05:59:47;;;;;;;3.70;1.97;;;11.00;99.90;;;;;;4933414;29;20276;-89
2023/10/26 06:02:15;;;;;;;3.20;1.80;;;10.90;99.90;;;;;;4931952;29;20184;-89
2023/10/26 06:04:41;;;;;;;2.75;2.42;;;12.40;99.90;;;;;;4935038;29;20601;-88
2023/10/26 06:07:06;;;;;;;2.20;2.00;;;11.60;99.90;;;;;;4933566;29;20191;-89
2023/10/26 06:09:32;;;;;;;3.97;2.10;;;12.90;99.90;;;;;;4934159;29;20235;-89
2023/10/26 06:11:58;;;;;;;2.63;2.40;;;11.90;99.90;;;;;;4934596;29;20184;-89
2023/10/26 06:14:23;;;;;;;3.67;2.10;;;13.00;99.90;;;;;;4934307;29;20208;-89
2023/10/26 06:16:49;;;;;;;1.90;1.80;;;13.30;99.90;;;;;;4933333;29;20204;-89
2023/10/26 06:19:15;;;;;;;4.03;2.30;;;12.50;99.90;;;;;;4933193;29;20185;-89
2023/10/26 06:21:41;;;;;;;2.63;2.10;;;;;;;;;;4935449;29;20187;-89
2023/10/26 06:24:07;;;;;;;3.45;2.35;;;11.50;99.90;;;;;;4950113;28;20212;-89
2023/10/26 06:26:32;;;;;;;3.75;2.20;;;11.60;99.90;;;;;;4933461;29;20242;-89
2023/10/26 06:28:59;;;;;;;3.20;2.70;;;12.70;99.90;;;;;;4932070;29;20189;-89
2023/10/26 06:31:25;;;;;;;6.13;3.88;;;12.30;99.90;;;;;;4933361;29;20442;-89
2023/10/26 06:33:51;;;;;;;2.13;1.80;;;12.20;99.90;;;;;;4933477;29;20236;-89
2023/10/26 06:36:17;;;;;;;4.43;2.10;;;11.30;99.90;;;;;;4934212;29;20663;-89
2023/10/26 06:38:45;;;;;;;3.90;2.10;;;13.80;99.90;;;;;;4944066;29;20193;-88
2023/10/26 06:41:10;;;;;;;3.35;2.10;;;13.10;99.90;;;;;;4955717;29;20181;-89
2023/10/26 06:43:37;;;;;;;4.33;1.97;;;;;;;;;;4936032;28;20212;-89
2023/10/26 06:46:05;;;;;;;3.45;2.85;;;11.60;99.90;;;;;;4933439;29;20184;-89
2023/10/26 06:48:31;;;;;;;3.70;2.25;;;11.60;99.90;;;;;;4934530;29;20201;-89
2023/10/26 06:51:02;;;;;;;4.10;2.27;;;14.20;99.90;;;;;;4942234;29;20328;-89
2023/10/26 06:53:28;;;;;;;5.80;2.05;;;11.80;99.90;;;;;;4933107;29;20476;-89
2023/10/26 06:55:54;;;;;;;5.95;2.80;;;13.40;99.90;;;;;;4935752;29;20204;-88
2023/10/26 06:58:20;;;;;;;3.00;2.10;;;13.60;99.90;;;;;;4920807;29;20217;-89
2023/10/26 07:00:46;;;;;;;2.80;2.50;;;;;;;;;;4934935;29;20285;-89
2023/10/26 07:03:12;;;;;;;3.10;1.90;;;12.00;99.90;;;;;;4946294;29;20205;-90
2023/10/26 07:05:38;;;;;;;4.47;2.92;;;13.50;99.90;;;;;;4951809;29;20439;-90
2023/10/26 07:08:04;;;;;;;5.60;2.37;;;13.00;99.90;;;;;;4934664;29;20260;-89
2023/10/26 07:10:31;;;;;;;3.00;2.30;;;12.10;99.90;;;;;;4931380;29;20665;-88
2023/10/26 07:12:56;;;;;;;3.47;2.30;;;13.20;99.90;;;;;;4937628;29;20469;-89
2023/10/26 07:15:22;;;;;;;2.13;1.93;;;12.70;99.90;;;;;;4941478;29;20564;-89
2023/10/26 07:17:48;;;;;;;4.33;2.40;;;12.80;99.90;;;;;;4943188;29;20241;-89
2023/10/26 07:20:13;;;;;;;3.23;1.97;;;14.40;99.90;;;;;;4939860;29;20186;-90
2023/10/26 07:22:40;;;;;;;3.17;2.20;;;12.20;99.90;;;;;;4938828;29;20204;-90
2023/10/26 07:25:08;;;;;;;2.38;2.17;;;13.10;99.90;;;;;;4936183;29;20274;-89
2023/10/26 07:27:33;;;;;;;2.97;2.10;;;12.20;99.90;;;;;;4940826;29;20196;-89
2023/10/26 07:29:59;;;;;;;4.30;2.57;;;13.40;99.90;;;;;;4939734;29;20194;-89
2023/10/26 07:32:25;;;;;;;5.22;3.60;;;12.50;99.90;;;;;;4935599;29;20193;-90
2023/10/26 07:34:52;;;;;;;2.90;2.10;;;14.60;99.90;;;;;;4948400;28;20194;-89
2023/10/26 07:37:18;;;;;;;3.10;2.63;;;14.50;99.90;;;;;;4928543;29;20260;-89
2023/10/26 07:39:46;;;;;;;3.75;2.30;;;13.40;99.90;;;;;;4935565;29;20189;-89
2023/10/26 07:42:11;;;;;;;3.17;1.90;;;12.60;99.90;;;;;;4936348;29;20174;-90
2023/10/26 07:44:37;;;;;;;4.33;2.67;;;14.30;99.90;;;;;;4935416;29;20345;-89
2023/10/26 07:47:04;;;;;;;3.33;1.88;;;12.50;99.90;;;;;;4933367;29;20198;-89
2023/10/26 07:49:31;;;;;;;4.15;2.33;;;13.00;99.90;;;;;;4945051;29;20220;-88
2023/10/26 07:51:56;;;;;;;2.00;1.80;;;12.50;99.90;;;;;;4933832;29;20704;-89
2023/10/26 07:54:22;;;;;;;5.97;3.63;;;;;;;;;;4931524;29;20297;-89
2023/10/26 07:56:48;;;;;;;2.10;1.90;;;13.10;99.90;;;;;;4930515;29;20588;-89
2023/10/26 07:59:13;;;;;;;3.97;1.93;;;14.30;99.90;;;;;;4933597;29;20517;-89
2023/10/26 08:01:39;;;;;;;1.73;1.60;;;14.80;99.90;;;;;;4932052;29;20614;-90
2023/10/26 08:04:05;;;;;;;3.77;2.67;;;15.30;99.90;;;;;;4933769;29;20216;-89
2023/10/26 08:06:30;;;;;;;4.20;2.33;;;13.30;99.90;;;;;;4932456;29;20651;-90
2023/10/26 08:08:58;;;;;;;2.73;2.27;;;15.70;99.90;;;;;;4931918;29;20445;-88
2023/10/26 08:11:24;;;;;;;2.80;2.10;;;13.70;99.90;;;;;;4933306;29;20220;-88
2023/10/26 08:13:51;;;;;;;4.53;2.00;;;14.50;99.90;;;;;;4934798;29;20229;-88
2023/10/26 08:16:16;;;;;;;4.70;3.55;;;15.50;99.90;;;;;;4933644;29;20985;-88
2023/10/26 08:18:42;;;;;;;2.40;2.20;;;14.80;99.90;;;;;;4936106;29;20198;-88
2023/10/26 08:21:08;;;;;;;5.40;2.57;;;13.60;99.90;;;;;;4934215;29;20445;-88
2023/10/26 08:23:34;;;;;;;4.43;1.90;;;15.30;99.90;;;;;;4932567;29;20685;-88
2023/10/26 08:26:08;;;;;;;1.97;1.40;;;15.80;99.90;;;;;;4934675;29;20296;-88
2023/10/26 08:28:35;;;;;;;1.48;1.38;;;15.10;99.90;;;;;;4927545;29;20220;-88
2023/10/26 08:31:01;;;;;;;1.80;1.52;;;15.30;99.90;;;;;;4934706;29;20192;-88
2023/10/26 08:33:30;;;;;;;1.88;1.33;;;14.10;99.90;;;;;;4933042;29;20753;-88
2023/10/26 08:35:59;;;;;;;1.85;1.65;;;14.00;99.90;;;;;;4930045;29;20197;-87
2023/10/26 08:38:25;;;;;;;2.90;2.63;;;16.00;99.90;;;;;;4928876;29;20308;-88
2023/10/26 08:40:54;;;;;;;2.33;1.43;;;14.20;99.90;;;;;;4931065;29;20763;-88
2023/10/26 08:43:22;;;;;;;5.40;2.15;;;14.10;99.90;;;;;;4929725;29;20472;-89
2023/10/26 08:45:48;;;;;;;4.10;2.03;;;13.80;99.90;;;;;;4935404;29;20674;-88
2023/10/26 08:48:18;;;;;;;3.63;1.92;;;14.50;99.90;;;;;;4935849;29;20272;-89
2023/10/26 08:50:48;;;;;;;3.05;2.03;;;15.10;99.90;;;;;;4936153;29;20197;-89
2023/10/26 08:53:14;;;;;;;4.35;2.40;;;15.40;99.90;;;;;;4932545;29;20205;-88
2023/10/26 08:55:42;;;;;;;2.20;1.83;;;16.10;99.90;;;;;;4938573;29;20185;-89
2023/10/26 08:58:08;;;;;;;4.15;2.25;;;14.30;99.90;;;;;;4935907;29;20748;-89
2023/10/26 09:00:37;;;;;;;3.20;1.70;;;15.60;99.90;;;;;;4952386;28;20190;-89
2023/10/26 09:03:03;;;;;;;2.25;1.90;;;15.80;99.90;;;;;;4937899;29;20620;-88
2023/10/26 09:05:28;;;;;;;3.47;2.20;;;16.10;99.90;;;;;;4931718;29;20185;-89
2023/10/26 09:07:54;;;;;;;3.73;2.20;;;16.40;99.90;;;;;;4935916;29;20185;-89
2023/10/26 09:10:30;;;;;;;1.93;1.57;;;15.90;99.90;;;;;;4932406;29;20734;-89
2023/10/26 09:13:00;;;;;;;1.42;1.33;;;14.80;99.90;;;;;;4934002;29;20234;-89
2023/10/26 09:15:26;;;;;;;1.45;1.00;;;15.30;99.90;;;;;;4931834;29;20502;-89
2023/10/26 09:17:55;;;;;;;2.65;1.13;;;16.20;99.90;;;;;;4936366;29;20301;-89
2023/10/26 09:20:21;;;;;;;2.20;1.20;;;16.60;99.90;;;;;;4937820;29;20674;-89
2023/10/26 09:22:47;;;;;;;1.40;1.30;;;14.70;99.90;;;;;;4936212;29;20202;-89
2023/10/26 09:25:14;;;;;;;1.50;1.10;;;16.70;99.90;;;;;;4945986;29;20178;-92
2023/10/26 09:27:41;;;;;;;1.42;1.10;;;16.50;99.90;;;;;;4953096;28;20201;-92
2023/10/26 09:30:25;;;;;;;2.75;1.23;;;15.00;99.90;;;;;;4938955;29;20655;-92
2023/10/26 09:32:51;;;;;;;1.20;1.10;;;16.60;99.90;;;;;;4939446;29;20205;-92
2023/10/26 09:35:31;;;;;;;1.90;0.98;;;14.80;99.90;;;;;;4937990;28;20237;-92
2023/10/26 09:37:58;;;;;;;2.35;1.45;;;14.40;99.90;;;;;;4948441;29;20205;-93
2023/10/26 09:40:26;;;;;;;1.20;1.10;;;14.70;99.90;;;;;;4959876;29;20193;-92
2023/10/26 09:42:55;;;;;;;1.80;1.20;;;15.20;99.90;;;;;;4958487;29;20210;-92
2023/10/26 09:45:21;;;;;;;2.20;1.45;;;16.50;99.90;;;;;;4958262;29;20234;-92
2023/10/26 09:47:48;;;;;;;1.57;1.47;;;;;;;;;;4954948;29;20761;-92
2023/10/26 09:50:14;;;;;;;1.80;1.70;;;14.30;99.90;;;;;;4952304;29;20867;-92
2023/10/26 09:52:42;;;;;;;5.70;2.78;;;14.20;99.90;;;;;;4940612;29;20300;-93
2023/10/26 09:55:10;;;;;;;2.80;2.50;;;16.30;99.90;;;;;;4934804;29;20189;-92
2023/10/26 09:57:45;;;;;;;3.42;1.67;;;15.60;99.90;;;;;;4907135;29;20286;-92
2023/10/26 10:00:11;;;;;;;1.80;1.48;;;13.70;99.90;;;;;;4946850;29;20181;-92
2023/10/26 10:02:36;;;;;;;3.67;2.38;;;13.70;99.90;;;;;;4946478;29;20331;-92
2023/10/26 10:05:04;;;;;;;4.27;1.50;;;13.40;99.90;;;;;;4947220;29;20467;-92
2023/10/26 10:07:56;;;;;;;3.45;2.45;;;13.60;99.90;;;;;;4956753;28;20185;-93
2023/10/26 10:10:21;;;;;;;2.70;1.60;;;14.70;99.90;;;;;;4938329;29;20606;-92
2023/10/26 10:12:52;;;;;;;2.47;1.83;;;14.80;99.90;;;;;;4951493;28;20453;-93
2023/10/26 10:15:35;;;;;;;3.35;1.95;;;15.00;99.90;;;;;;4936135;29;20209;-92
2023/10/26 10:18:03;;;;;;;1.90;1.70;;;14.40;99.90;;;;;;4931716;29;20202;-93
2023/10/26 10:20:37;;;;;;;5.68;2.45;;;13.70;99.90;;;;;;4941401;29;20186;-92
2023/10/26 10:23:04;;;;;;;4.07;2.50;;;14.00;99.90;;;;;;4950887;28;20207;-92
2023/10/26 10:25:58;;;;;;;5.90;3.53;;;14.50;99.90;;;;;;4942414;29;20253;-92
2023/10/26 10:28:23;;;;;;;4.20;3.45;;;15.00;99.90;;;;;;4955155;28;20812;-93
2023/10/26 10:31:00;;;;;;;4.40;3.60;;;13.00;99.90;;;;;;4951829;29;20193;-92
2023/10/26 10:33:28;;;;;;;4.20;3.80;;;13.70;99.90;;;;;;4939782;29;20505;-92
2023/10/26 10:35:56;;;;;;;6.80;4.28;;;15.10;99.90;;;;;;4949482;29;20192;-92
2023/10/26 10:38:23;;;;;;;5.28;4.60;;;13.70;99.90;;;;;;4948847;29;20682;-93
2023/10/26 10:40:55;;;;;;;5.68;4.10;;;14.60;99.90;;;;;;4941364;29;20185;-93
2023/10/26 10:43:35;;;;;;;5.20;4.50;;;13.50;99.90;;;;;;4938672;29;20216;-92
2023/10/26 10:46:23;;;;;;;5.75;4.45;;;13.30;99.90;;;;;;4945410;29;20196;-92
2023/10/26 10:49:02;;;;;;;4.72;4.32;;;13.40;99.90;;;;;;4935113;29;20780;-92
2023/10/26 10:51:37;;;;;;;6.00;4.53;;;13.40;99.90;;;;;;4935138;29;20204;-92
2023/10/26 10:54:05;;;;;;;5.43;4.88;;;13.60;99.90;;;;;;4937644;29;20202;-92
2023/10/26 10:56:42;;;;;;;4.53;4.13;;;13.40;99.90;;;;;;4938851;29;20189;-92
2023/10/26 10:59:22;;;;;;;6.53;6.03;;;13.70;99.90;;;;;;4957396;29;20618;-92
2023/10/26 11:02:12;;;;;;;4.10;3.72;;;14.20;99.90;;;;;;4940309;29;20182;-93
2023/10/26 11:04:57;;;;;;;5.57;5.07;;;13.70;99.90;;;;;;4938404;29;20213;-93
2023/10/26 11:07:27;;;;;;;5.07;4.25;;;14.10;99.90;;;;;;4941501;29;20273;-93
2023/10/26 11:09:57;;;;;;;4.50;4.10;;;13.80;99.90;;;;;;4950777;29;20216;-92
2023/10/26 11:12:23;;;;;;;3.70;3.40;;;13.90;99.90;;;;;;4940940;29;20212;-93
2023/10/26 11:14:52;;;;;;;3.60;3.30;;;14.30;99.90;;;;;;4940381;29;20264;-92
2023/10/26 11:17:21;;;;;;;3.30;3.00;;;13.90;99.90;;;;;;4940398;29;20489;-92
2023/10/26 11:19:48;;;;;;;2.70;2.50;;;14.10;99.90;;;;;;4954017;29;20194;-92
2023/10/26 11:22:18;;;;;;;2.80;2.58;;;14.60;99.90;;;;;;4948649;28;20196;-93
2023/10/26 11:24:45;;;;;;;3.10;2.80;;;14.50;99.90;;;;;;4952368;29;20189;-92
2023/10/26 11:27:13;;;;;;;3.30;2.80;;;14.30;99.90;;;;;;4953235;29;20190;-92
2023/10/26 11:29:42;;;;;;;3.20;2.90;;;15.30;99.90;;;;;;4945724;29;20201;-92
2023/10/26 11:32:22;;;;;;;2.97;2.78;;;14.70;99.90;;;;;;4938170;29;20193;-92
2023/10/26 11:35:09;;;;;;;3.40;3.10;;;14.70;99.90;;;;;;4944332;29;20185;-92
2023/10/26 11:37:36;;;;;;;4.53;3.60;;;14.60;99.90;;;;;;4948013;29;20221;-92
2023/10/26 11:40:07;;;;;;;3.97;3.58;;;15.20;99.90;;;;;;4955144;28;20178;-92
2023/10/26 11:42:50;;;;;;;3.25;3.05;;;15.10;99.90;;;;;;4936338;29;20215;-92
2023/10/26 11:45:20;;;;;;;4.97;4.15;;;14.40;99.90;;;;;;4952583;28;20188;-92
2023/10/26 11:47:59;;;;;;;4.93;4.45;;;14.80;99.90;;;;;;4937621;29;20204;-92
2023/10/26 11:50:36;;;;;;;4.13;3.72;;;14.80;99.90;;;;;;4937166;29;20181;-92
2023/10/26 11:53:03;;;;;;;3.60;3.30;;;14.90;99.90;;;;;;4931865;29;20217;-92
2023/10/26 11:55:32;;;;;;;6.72;5.00;;;15.40;99.90;;;;;;4932941;29;20197;-92
2023/10/26 11:58:01;;;;;;;5.07;4.10;;;15.70;99.90;;;;;;4932049;29;20599;-92
2023/10/26 12:00:28;;;;;;;3.28;2.97;;;14.80;99.90;;;;;;4933891;29;20248;-92
2023/10/26 12:02:55;;;;;;;2.50;2.30;;;15.10;99.90;;;;;;4935502;29;20201;-92
2023/10/26 12:05:22;;;;;;;2.97;2.78;;;14.60;99.90;;;;;;4937710;29;20221;-93
2023/10/26 12:07:49;;;;;;;3.53;3.22;;;15.50;99.90;;;;;;4937502;29;20189;-92
2023/10/26 12:10:17;;;;;;;3.38;3.08;;;15.70;99.90;;;;;;4935939;29;20647;-92
2023/10/26 12:12:45;;;;;;;3.65;3.35;;;16.80;99.90;;;;;;4931845;29;20209;-94
2023/10/26 12:15:12;;;;;;;3.92;3.63;;;17.10;99.90;;;;;;4935213;29;20182;-93
2023/10/26 12:17:37;;;;;;;4.20;3.90;;;17.30;99.90;;;;;;4938062;29;20236;-94
2023/10/26 12:20:04;;;;;;;3.73;3.30;;;17.90;99.90;;;;;;4940063;29;20437;-93
2023/10/26 12:22:32;;;;;;;4.65;3.00;;;16.10;99.90;;;;;;4922761;29;20624;-94
2023/10/26 12:24:57;;;;;;;3.30;3.00;;;18.00;99.90;;;;;;4937975;29;20271;-94
2023/10/26 12:27:23;;;;;;;3.47;3.17;;;16.10;99.90;;;;;;4936623;29;20651;-94
2023/10/26 12:29:49;;;;;;;3.70;3.40;;;17.70;99.90;;;;;;4939969;29;20268;-94
2023/10/26 12:32:19;;;;;;;3.90;3.60;;;17.80;99.90;;;;;;4941744;29;20764;-91
2023/10/26 12:34:45;;;;;;;3.15;2.53;;;17.60;99.90;;;;;;4933753;29;20238;-93
2023/10/26 12:37:22;;;;;;;3.10;2.90;;;17.90;99.90;;;;;;4950861;29;20220;-92
2023/10/26 12:39:48;;;;;;;3.30;3.10;;;18.70;99.90;;;;;;4947012;29;20186;-92
2023/10/26 12:42:14;;;;;;;2.70;2.50;;;16.60;99.90;;;;;;4923159;29;20189;-93
2023/10/26 12:44:40;;;;;;;2.67;2.47;;;16.70;99.90;;;;;;4937826;29;20185;-93
2023/10/26 12:47:06;;;;;;;2.40;2.20;;;18.10;99.90;;;;;;4940575;29;20583;-93
2023/10/26 12:49:32;;;;;;;3.75;3.05;;;17.30;99.90;;;;;;4941374;29;20598;-92
2023/10/26 12:51:57;;;;;;;3.20;2.90;;;15.80;99.90;;;;;;4941060;29;20185;-93
2023/10/26 12:54:23;;;;;;;3.60;3.30;;;17.30;99.90;;;;;;4936585;29;20531;-92